sensor_id;sensor_type;location;lat;lon;timestamp;pressure;altitude;pressure_sealevel;temperature;humidity
61474;BME280;53694;49.784;30.150;2023-03-17T00:00:02;99890.70;;;4.09;68.20
61474;BME280;53694;49.784;30.150;2023-03-17T00:01:04;99896.41;;;3.76;69.10
61474;BME280;53694;49.784;30.150;2023-03-17T00:02:07;99893.82;;;3.49;69.92
61474;BME280;53694;49.784;30.150;2023-03-17T00:03:27;99893.61;;;3.23;70.92
61474;BME280;53694;49.784;30.150;2023-03-17T00:04:26;99889.54;;;2.98;71.75
61474;BME280;53694;49.784;30.150;2023-03-17T00:05:33;99898.80;;;2.69;72.83
61474;BME280;53694;49.784;30.150;2023-03-17T00:06:36;99891.69;;;2.60;73.61
61474;BME280;53694;49.784;30.150;2023-03-17T00:07:37;99891.47;;;2.70;73.71
61474;BME280;53694;49.784;30.150;2023-03-17T00:08:39;99892.85;;;2.95;73.37
61474;BME280;53694;49.784;30.150;2023-03-17T00:09:41;99887.06;;;3.24;72.51
61474;BME280;53694;49.784;30.150;2023-03-17T00:10:42;99890.18;;;3.54;71.04
61474;BME280;53694;49.784;30.150;2023-03-17T00:11:44;99895.98;;;3.83;69.99
61474;BME280;53694;49.784;30.150;2023-03-17T00:12:48;99890.56;;;4.14;69.09
61474;BME280;53694;49.784;30.150;2023-03-17T00:13:49;99888.32;;;4.47;68.05
61474;BME280;53694;49.784;30.150;2023-03-17T00:14:51;99896.72;;;4.68;66.95
61474;BME280;53694;49.784;30.150;2023-03-17T00:16:01;99900.88;;;4.74;66.43
61474;BME280;53694;49.784;30.150;2023-03-17T00:17:03;99894.94;;;4.64;66.35
61474;BME280;53694;49.784;30.150;2023-03-17T00:18:10;99895.97;;;4.45;67.01
61474;BME280;53694;49.784;30.150;2023-03-17T00:19:18;99895.72;;;4.24;67.00
61474;BME280;53694;49.784;30.150;2023-03-17T00:20:28;99893.00;;;3.93;67.78
61474;BME280;53694;49.784;30.150;2023-03-17T00:21:33;99901.78;;;3.68;68.95
61474;BME280;53694;49.784;30.150;2023-03-17T00:22:34;99893.92;;;3.44;70.05
61474;BME280;53694;49.784;30.150;2023-03-17T00:23:36;99906.86;;;3.24;70.76
61474;BME280;53694;49.784;30.150;2023-03-17T00:24:38;99900.27;;;3.03;71.49
61474;BME280;53694;49.784;30.150;2023-03-17T00:25:39;99892.66;;;2.91;72.25
61474;BME280;53694;49.784;30.150;2023-03-17T00:26:42;99899.08;;;2.95;72.51
61474;BME280;53694;49.784;30.150;2023-03-17T00:27:43;99898.93;;;3.14;72.27
61474;BME280;53694;49.784;30.150;2023-03-17T00:28:45;99898.55;;;3.43;71.71
61474;BME280;53694;49.784;30.150;2023-03-17T00:29:47;99897.84;;;3.74;70.69
61474;BME280;53694;49.784;30.150;2023-03-17T00:31:00;99902.70;;;4.08;69.86
61474;BME280;53694;49.784;30.150;2023-03-17T00:32:00;99905.25;;;4.44;68.20
61474;BME280;53694;49.784;30.150;2023-03-17T00:33:01;99899.46;;;4.77;67.49
61474;BME280;53694;49.784;30.150;2023-03-17T00:34:03;99905.59;;;5.00;66.26
61474;BME280;53694;49.784;30.150;2023-03-17T00:35:16;99903.84;;;5.04;65.06
61474;BME280;53694;49.784;30.150;2023-03-17T00:36:21;99891.96;;;4.91;65.03
61474;BME280;53694;49.784;30.150;2023-03-17T00:37:23;99895.23;;;4.62;65.53
61474;BME280;53694;49.784;30.150;2023-03-17T00:38:25;99895.28;;;4.31;66.31
61474;BME280;53694;49.784;30.150;2023-03-17T00:39:27;99889.86;;;4.00;67.39
61474;BME280;53694;49.784;30.150;2023-03-17T00:40:29;99898.13;;;3.72;68.51
61474;BME280;53694;49.784;30.150;2023-03-17T00:41:31;99906.09;;;3.46;69.23
61474;BME280;53694;49.784;30.150;2023-03-17T00:42:32;99906.66;;;3.21;70.31
61474;BME280;53694;49.784;30.150;2023-03-17T00:43:34;99900.56;;;3.01;71.29
61474;BME280;53694;49.784;30.150;2023-03-17T00:44:36;99894.68;;;2.86;72.07
61474;BME280;53694;49.784;30.150;2023-03-17T00:45:38;99903.80;;;2.76;72.95
61474;BME280;53694;49.784;30.150;2023-03-17T00:46:40;99896.27;;;2.87;73.08
61474;BME280;53694;49.784;30.150;2023-03-17T00:47:42;99902.87;;;3.08;72.80
61474;BME280;53694;49.784;30.150;2023-03-17T00:48:44;99895.95;;;3.38;71.93
61474;BME280;53694;49.784;30.150;2023-03-17T00:49:46;99899.25;;;3.71;71.19
61474;BME280;53694;49.784;30.150;2023-03-17T00:50:49;99897.55;;;4.07;70.04
61474;BME280;53694;49.784;30.150;2023-03-17T00:51:51;99901.27;;;4.42;68.75
61474;BME280;53694;49.784;30.150;2023-03-17T00:52:55;99909.84;;;4.75;67.37
61474;BME280;53694;49.784;30.150;2023-03-17T00:53:56;99902.57;;;5.01;66.15
61474;BME280;53694;49.784;30.150;2023-03-17T00:54:58;99898.24;;;5.18;64.83
61474;BME280;53694;49.784;30.150;2023-03-17T00:56:00;99901.30;;;5.16;64.30
61474;BME280;53694;49.784;30.150;2023-03-17T00:57:01;99904.63;;;5.05;64.53
61474;BME280;53694;49.784;30.150;2023-03-17T00:58:09;99899.31;;;4.82;64.49
61474;BME280;53694;49.784;30.150;2023-03-17T00:59:23;99895.03;;;4.50;65.41
61474;BME280;53694;49.784;30.150;2023-03-17T01:00:28;99901.00;;;4.21;66.44
61474;BME280;53694;49.784;30.150;2023-03-17T01:01:29;99905.92;;;3.88;67.47
61474;BME280;53694;49.784;30.150;2023-03-17T01:02:31;99904.63;;;3.63;68.31
61474;BME280;53694;49.784;30.150;2023-03-17T01:03:33;99906.34;;;3.36;69.40
61474;BME280;53694;49.784;30.150;2023-03-17T01:04:34;99907.06;;;3.14;70.38
61474;BME280;53694;49.784;30.150;2023-03-17T01:05:36;99914.55;;;2.95;70.83
61474;BME280;53694;49.784;30.150;2023-03-17T01:06:39;99898.90;;;2.78;71.61
61474;BME280;53694;49.784;30.150;2023-03-17T01:07:41;99902.31;;;2.70;72.69
61474;BME280;53694;49.784;30.150;2023-03-17T01:08:44;99909.75;;;2.78;72.86
61474;BME280;53694;49.784;30.150;2023-03-17T01:09:46;99906.30;;;3.00;72.59
61474;BME280;53694;49.784;30.150;2023-03-17T01:10:48;99909.66;;;3.33;71.86
61474;BME280;53694;49.784;30.150;2023-03-17T01:11:49;99907.21;;;3.68;70.58
61474;BME280;53694;49.784;30.150;2023-03-17T01:12:52;99902.51;;;4.05;69.42
61474;BME280;53694;49.784;30.150;2023-03-17T01:13:54;99907.61;;;4.37;68.04
61474;BME280;53694;49.784;30.150;2023-03-17T01:14:56;99909.52;;;4.68;66.70
61474;BME280;53694;49.784;30.150;2023-03-17T01:15:57;99907.82;;;4.89;65.77
61474;BME280;53694;49.784;30.150;2023-03-17T01:16:59;99910.22;;;4.91;64.69
61474;BME280;53694;49.784;30.150;2023-03-17T01:18:01;99908.42;;;4.78;64.69
61474;BME280;53694;49.784;30.150;2023-03-17T01:19:02;99906.59;;;4.56;65.32
61474;BME280;53694;49.784;30.150;2023-03-17T01:20:05;99898.80;;;4.32;65.82
61474;BME280;53694;49.784;30.150;2023-03-17T01:21:07;99908.08;;;3.99;66.72
61474;BME280;53694;49.784;30.150;2023-03-17T01:22:09;99912.96;;;3.66;67.90
61474;BME280;53694;49.784;30.150;2023-03-17T01:23:11;99908.13;;;3.41;69.02
61474;BME280;53694;49.784;30.150;2023-03-17T01:24:13;99908.89;;;3.19;70.11
61474;BME280;53694;49.784;30.150;2023-03-17T01:25:16;99909.33;;;2.98;71.00
61474;BME280;53694;49.784;30.150;2023-03-17T01:26:18;99915.38;;;2.82;71.74
61474;BME280;53694;49.784;30.150;2023-03-17T01:27:20;99909.86;;;2.73;72.35
61474;BME280;53694;49.784;30.150;2023-03-17T01:28:21;99921.60;;;2.82;72.85
61474;BME280;53694;49.784;30.150;2023-03-17T01:29:23;99905.70;;;3.03;72.25
61474;BME280;53694;49.784;30.150;2023-03-17T01:30:30;99913.48;;;3.32;71.51
61474;BME280;53694;49.784;30.150;2023-03-17T01:31:33;99909.73;;;3.64;70.23
61474;BME280;53694;49.784;30.150;2023-03-17T01:32:35;99916.23;;;3.99;69.26
61474;BME280;53694;49.784;30.150;2023-03-17T01:33:36;99918.02;;;4.35;68.23
61474;BME280;53694;49.784;30.150;2023-03-17T01:34:38;99918.16;;;4.70;67.23
61474;BME280;53694;49.784;30.150;2023-03-17T01:35:40;99916.63;;;4.95;65.73
61474;BME280;53694;49.784;30.150;2023-03-17T01:36:42;99918.07;;;5.01;65.09
61474;BME280;53694;49.784;30.150;2023-03-17T01:37:45;99923.20;;;4.94;65.09
61474;BME280;53694;49.784;30.150;2023-03-17T01:38:47;99918.00;;;4.75;65.08
61474;BME280;53694;49.784;30.150;2023-03-17T01:39:49;99924.15;;;4.49;65.64
61474;BME280;53694;49.784;30.150;2023-03-17T01:40:51;99920.03;;;4.21;65.97
61474;BME280;53694;49.784;30.150;2023-03-17T01:41:52;99924.33;;;3.91;67.17
61474;BME280;53694;49.784;30.150;2023-03-17T01:44:03;99917.67;;;3.38;68.78
61474;BME280;53694;49.784;30.150;2023-03-17T01:45:07;99918.55;;;3.11;69.83
61474;BME280;53694;49.784;30.150;2023-03-17T01:47:15;99925.61;;;2.71;72.00
61474;BME280;53694;49.784;30.150;2023-03-17T01:48:17;99920.79;;;2.54;72.79
61474;BME280;53694;49.784;30.150;2023-03-17T01:49:26;99920.89;;;2.49;73.33
61474;BME280;53694;49.784;30.150;2023-03-17T01:50:27;99919.60;;;2.60;73.68
61474;BME280;53694;49.784;30.150;2023-03-17T01:52:40;99919.92;;;3.22;72.07
61474;BME280;53694;49.784;30.150;2023-03-17T01:53:43;99923.63;;;3.63;70.83
61474;BME280;53694;49.784;30.150;2023-03-17T01:54:58;99928.70;;;4.00;69.73
61474;BME280;53694;49.784;30.150;2023-03-17T01:56:01;99916.42;;;4.34;67.58
61474;BME280;53694;49.784;30.150;2023-03-17T01:57:19;99929.03;;;4.70;65.86
61474;BME280;53694;49.784;30.150;2023-03-17T01:58:22;99943.64;;;4.83;64.67
61474;BME280;53694;49.784;30.150;2023-03-17T01:59:27;99930.81;;;4.74;64.11
61474;BME280;53694;49.784;30.150;2023-03-17T02:00:30;99932.81;;;4.51;64.77
61474;BME280;53694;49.784;30.150;2023-03-17T02:01:40;99931.75;;;4.30;65.54
61474;BME280;53694;49.784;30.150;2023-03-17T02:02:44;99930.16;;;4.07;66.22
61474;BME280;53694;49.784;30.150;2023-03-17T02:03:47;99941.98;;;3.80;66.93
61474;BME280;53694;49.784;30.150;2023-03-17T02:04:50;99932.31;;;3.51;67.75
61474;BME280;53694;49.784;30.150;2023-03-17T02:05:53;99941.34;;;3.24;68.72
61474;BME280;53694;49.784;30.150;2023-03-17T02:06:55;99942.69;;;2.99;69.67
61474;BME280;53694;49.784;30.150;2023-03-17T02:07:57;99927.63;;;2.79;70.62
61474;BME280;53694;49.784;30.150;2023-03-17T02:08:58;99930.66;;;2.64;71.31
61474;BME280;53694;49.784;30.150;2023-03-17T02:10:01;99936.36;;;2.48;72.03
61474;BME280;53694;49.784;30.150;2023-03-17T02:11:03;99938.65;;;2.41;72.65
61474;BME280;53694;49.784;30.150;2023-03-17T02:12:06;99941.67;;;2.54;72.68
61474;BME280;53694;49.784;30.150;2023-03-17T02:13:10;99937.36;;;2.80;72.46
61474;BME280;53694;49.784;30.150;2023-03-17T02:14:12;99937.75;;;3.15;71.39
61474;BME280;53694;49.784;30.150;2023-03-17T02:15:14;99931.20;;;3.52;70.28
61474;BME280;53694;49.784;30.150;2023-03-17T02:16:16;99943.95;;;3.88;68.75
61474;BME280;53694;49.784;30.150;2023-03-17T02:17:19;99935.84;;;4.19;67.46
61474;BME280;53694;49.784;30.150;2023-03-17T02:18:21;99937.89;;;4.44;65.87
61474;BME280;53694;49.784;30.150;2023-03-17T02:19:23;99942.61;;;4.61;65.26
61474;BME280;53694;49.784;30.150;2023-03-17T02:21:48;99944.67;;;4.56;64.69
61474;BME280;53694;49.784;30.150;2023-03-17T02:22:51;99941.08;;;4.38;65.43
61474;BME280;53694;49.784;30.150;2023-03-17T02:23:54;99937.84;;;4.05;65.98
61474;BME280;53694;49.784;30.150;2023-03-17T02:24:57;99945.50;;;3.80;66.86
61474;BME280;53694;49.784;30.150;2023-03-17T02:25:59;99948.80;;;3.55;67.58
61474;BME280;53694;49.784;30.150;2023-03-17T02:27:11;99952.09;;;3.29;68.37
61474;BME280;53694;49.784;30.150;2023-03-17T02:28:16;99953.95;;;3.06;69.44
61474;BME280;53694;49.784;30.150;2023-03-17T02:29:20;99955.75;;;2.83;70.28
61474;BME280;53694;49.784;30.150;2023-03-17T02:30:23;99956.34;;;2.66;71.06
61474;BME280;53694;49.784;30.150;2023-03-17T02:31:26;99953.63;;;2.53;71.65
61474;BME280;53694;49.784;30.150;2023-03-17T02:32:27;99951.02;;;2.47;72.14
61474;BME280;53694;49.784;30.150;2023-03-17T02:33:29;99961.08;;;2.61;72.37
61474;BME280;53694;49.784;30.150;2023-03-17T02:34:31;99965.20;;;2.86;71.91
61474;BME280;53694;49.784;30.150;2023-03-17T02:35:33;99970.80;;;3.17;71.25
61474;BME280;53694;49.784;30.150;2023-03-17T02:36:35;99969.53;;;3.50;70.16
61474;BME280;53694;49.784;30.150;2023-03-17T02:37:37;99972.53;;;3.85;69.20
61474;BME280;53694;49.784;30.150;2023-03-17T02:38:39;99966.25;;;4.21;67.97
61474;BME280;53694;49.784;30.150;2023-03-17T02:39:40;99969.15;;;4.56;66.97
61474;BME280;53694;49.784;30.150;2023-03-17T02:40:42;99973.40;;;4.79;65.71
61474;BME280;53694;49.784;30.150;2023-03-17T02:41:44;99968.64;;;4.85;64.85
61474;BME280;53694;49.784;30.150;2023-03-17T02:42:45;99970.50;;;4.75;64.81
61474;BME280;53694;49.784;30.150;2023-03-17T02:43:47;99971.22;;;4.59;65.17
61474;BME280;53694;49.784;30.150;2023-03-17T02:44:48;99976.10;;;4.39;65.69
61474;BME280;53694;49.784;30.150;2023-03-17T02:45:50;99977.41;;;4.19;66.29
61474;BME280;53694;49.784;30.150;2023-03-17T02:46:51;99975.03;;;3.95;66.80
61474;BME280;53694;49.784;30.150;2023-03-17T02:47:54;99979.94;;;3.71;67.44
61474;BME280;53694;49.784;30.150;2023-03-17T02:48:55;99968.53;;;3.46;68.32
61474;BME280;53694;49.784;30.150;2023-03-17T02:49:58;99978.23;;;3.25;69.44
61474;BME280;53694;49.784;30.150;2023-03-17T02:50:59;99975.94;;;3.05;70.15
61474;BME280;53694;49.784;30.150;2023-03-17T02:52:02;99973.03;;;2.87;70.78
61474;BME280;53694;49.784;30.150;2023-03-17T02:53:03;99977.14;;;2.71;71.35
61474;BME280;53694;49.784;30.150;2023-03-17T02:54:05;99978.36;;;2.65;71.88
61474;BME280;53694;49.784;30.150;2023-03-17T02:55:08;99975.95;;;2.77;72.09
61474;BME280;53694;49.784;30.150;2023-03-17T02:56:09;99975.45;;;3.03;71.55
61474;BME280;53694;49.784;30.150;2023-03-17T02:57:11;99978.64;;;3.32;70.60
61474;BME280;53694;49.784;30.150;2023-03-17T02:58:12;99974.63;;;3.66;69.71
61474;BME280;53694;49.784;30.150;2023-03-17T02:59:14;99977.11;;;3.98;68.45
61474;BME280;53694;49.784;30.150;2023-03-17T03:00:17;99977.17;;;4.30;67.23
61474;BME280;53694;49.784;30.150;2023-03-17T03:01:20;99977.45;;;4.50;66.52
61474;BME280;53694;49.784;30.150;2023-03-17T03:02:21;99979.70;;;4.57;65.71
61474;BME280;53694;49.784;30.150;2023-03-17T03:03:23;99978.06;;;4.47;65.66
61474;BME280;53694;49.784;30.150;2023-03-17T03:04:24;99977.97;;;4.30;65.99
61474;BME280;53694;49.784;30.150;2023-03-17T03:05:26;99974.96;;;4.09;66.56
61474;BME280;53694;49.784;30.150;2023-03-17T03:06:28;99976.05;;;3.86;67.10
61474;BME280;53694;49.784;30.150;2023-03-17T03:07:30;99980.16;;;3.61;68.00
61474;BME280;53694;49.784;30.150;2023-03-17T03:08:32;99975.00;;;3.37;68.92
61474;BME280;53694;49.784;30.150;2023-03-17T03:09:34;99973.83;;;3.15;69.73
61474;BME280;53694;49.784;30.150;2023-03-17T03:10:36;99971.33;;;2.91;70.81
61474;BME280;53694;49.784;30.150;2023-03-17T03:11:38;99974.42;;;2.71;71.48
61474;BME280;53694;49.784;30.150;2023-03-17T03:12:40;99973.41;;;2.53;72.54
61474;BME280;53694;49.784;30.150;2023-03-17T03:13:41;99980.84;;;2.47;72.90
61474;BME280;53694;49.784;30.150;2023-03-17T03:14:43;99976.82;;;2.59;73.13
61474;BME280;53694;49.784;30.150;2023-03-17T03:15:45;99976.65;;;2.83;72.83
61474;BME280;53694;49.784;30.150;2023-03-17T03:16:47;99982.26;;;3.14;71.80
61474;BME280;53694;49.784;30.150;2023-03-17T03:17:50;99979.72;;;3.45;70.71
61474;BME280;53694;49.784;30.150;2023-03-17T03:18:51;99971.35;;;3.78;69.67
61474;BME280;53694;49.784;30.150;2023-03-17T03:19:53;99979.46;;;4.14;68.70
61474;BME280;53694;49.784;30.150;2023-03-17T03:20:55;99979.98;;;4.47;67.89
61474;BME280;53694;49.784;30.150;2023-03-17T03:21:56;99980.41;;;4.71;66.60
61474;BME280;53694;49.784;30.150;2023-03-17T03:22:58;99977.42;;;4.82;66.18
61474;BME280;53694;49.784;30.150;2023-03-17T03:24:00;99978.55;;;4.81;65.93
61474;BME280;53694;49.784;30.150;2023-03-17T03:25:01;99979.93;;;4.69;65.98
61474;BME280;53694;49.784;30.150;2023-03-17T03:26:04;99981.77;;;4.51;66.09
61474;BME280;53694;49.784;30.150;2023-03-17T03:27:06;99980.69;;;4.30;66.42
61474;BME280;53694;49.784;30.150;2023-03-17T03:28:08;99979.41;;;4.05;67.22
61474;BME280;53694;49.784;30.150;2023-03-17T03:29:10;99996.98;;;3.85;67.97
61474;BME280;53694;49.784;30.150;2023-03-17T03:30:12;99995.37;;;3.62;68.27
61474;BME280;53694;49.784;30.150;2023-03-17T03:31:14;99997.20;;;3.39;69.14
61474;BME280;53694;49.784;30.150;2023-03-17T03:32:15;99993.31;;;3.17;69.79
61474;BME280;53694;49.784;30.150;2023-03-17T03:33:17;99991.84;;;2.97;70.56
61474;BME280;53694;49.784;30.150;2023-03-17T03:34:18;99994.03;;;2.82;71.21
61474;BME280;53694;49.784;30.150;2023-03-17T03:35:20;99989.20;;;2.65;71.92
61474;BME280;53694;49.784;30.150;2023-03-17T03:36:22;99999.03;;;2.61;72.76
61474;BME280;53694;49.784;30.150;2023-03-17T03:37:24;100001.05;;;2.69;72.65
61474;BME280;53694;49.784;30.150;2023-03-17T03:38:26;99990.31;;;2.91;72.39
61474;BME280;53694;49.784;30.150;2023-03-17T03:39:28;99995.12;;;3.22;71.52
61474;BME280;53694;49.784;30.150;2023-03-17T03:40:29;99994.66;;;3.56;70.53
61474;BME280;53694;49.784;30.150;2023-03-17T03:41:31;99994.66;;;3.92;68.97
61474;BME280;53694;49.784;30.150;2023-03-17T03:42:32;99988.66;;;4.26;68.04
61474;BME280;53694;49.784;30.150;2023-03-17T03:43:34;99999.55;;;4.58;66.84
61474;BME280;53694;49.784;30.150;2023-03-17T03:44:36;99997.89;;;4.79;65.67
61474;BME280;53694;49.784;30.150;2023-03-17T03:45:38;99997.75;;;4.84;65.17
61474;BME280;53694;49.784;30.150;2023-03-17T03:46:40;99997.09;;;4.79;65.20
61474;BME280;53694;49.784;30.150;2023-03-17T03:47:41;99999.73;;;4.61;65.13
61474;BME280;53694;49.784;30.150;2023-03-17T03:48:43;100005.51;;;4.37;65.68
61474;BME280;53694;49.784;30.150;2023-03-17T03:49:44;100005.05;;;4.13;66.52
61474;BME280;53694;49.784;30.150;2023-03-17T03:50:47;99998.59;;;3.86;67.23
61474;BME280;53694;49.784;30.150;2023-03-17T03:51:48;100005.11;;;3.63;67.85
61474;BME280;53694;49.784;30.150;2023-03-17T03:52:50;100006.67;;;3.41;68.77
61474;BME280;53694;49.784;30.150;2023-03-17T03:53:52;100009.80;;;3.21;69.54
61474;BME280;53694;49.784;30.150;2023-03-17T03:54:53;100018.86;;;3.03;70.29
61474;BME280;53694;49.784;30.150;2023-03-17T03:55:55;100014.83;;;2.86;70.81
61474;BME280;53694;49.784;30.150;2023-03-17T03:56:57;100010.80;;;2.70;71.60
61474;BME280;53694;49.784;30.150;2023-03-17T03:57:58;100022.85;;;2.64;72.19
61474;BME280;53694;49.784;30.150;2023-03-17T03:59:00;100022.66;;;2.74;72.43
61474;BME280;53694;49.784;30.150;2023-03-17T04:00:03;100020.05;;;2.96;72.05
61474;BME280;53694;49.784;30.150;2023-03-17T04:01:06;100016.23;;;3.25;71.30
61474;BME280;53694;49.784;30.150;2023-03-17T04:02:09;100022.02;;;3.60;70.44
61474;BME280;53694;49.784;30.150;2023-03-17T04:03:11;100027.14;;;3.97;69.51
61474;BME280;53694;49.784;30.150;2023-03-17T04:04:12;100022.66;;;4.38;68.42
61474;BME280;53694;49.784;30.150;2023-03-17T04:05:15;100031.00;;;4.72;66.78
61474;BME280;53694;49.784;30.150;2023-03-17T04:06:18;100030.62;;;4.96;65.58
61474;BME280;53694;49.784;30.150;2023-03-17T04:07:19;100030.36;;;5.07;64.86
61474;BME280;53694;49.784;30.150;2023-03-17T04:08:21;100025.68;;;4.98;64.49
61474;BME280;53694;49.784;30.150;2023-03-17T04:09:22;100022.88;;;4.81;64.39
61474;BME280;53694;49.784;30.150;2023-03-17T04:10:24;100032.83;;;4.55;64.59
61474;BME280;53694;49.784;30.150;2023-03-17T04:11:25;100036.00;;;4.25;65.48
61474;BME280;53694;49.784;30.150;2023-03-17T04:12:27;100035.80;;;3.99;66.36
61474;BME280;53694;49.784;30.150;2023-03-17T04:13:28;100037.47;;;3.73;66.75
61474;BME280;53694;49.784;30.150;2023-03-17T04:14:30;100046.17;;;3.47;67.68
61474;BME280;53694;49.784;30.150;2023-03-17T04:15:32;100040.66;;;3.25;68.61
61474;BME280;53694;49.784;30.150;2023-03-17T04:16:34;100047.01;;;3.07;69.30
61474;BME280;53694;49.784;30.150;2023-03-17T04:17:35;100037.55;;;2.90;70.32
61474;BME280;53694;49.784;30.150;2023-03-17T04:18:37;100036.70;;;2.76;70.74
61474;BME280;53694;49.784;30.150;2023-03-17T04:19:39;100048.34;;;2.63;71.44
61474;BME280;53694;49.784;30.150;2023-03-17T04:20:40;100051.94;;;2.58;71.80
61474;BME280;53694;49.784;30.150;2023-03-17T04:21:42;100047.66;;;2.71;72.10
61474;BME280;53694;49.784;30.150;2023-03-17T04:22:43;100049.62;;;2.98;71.57
61474;BME280;53694;49.784;30.150;2023-03-17T04:23:45;100055.73;;;3.31;70.55
61474;BME280;53694;49.784;30.150;2023-03-17T04:24:47;100057.41;;;3.68;69.26
61474;BME280;53694;49.784;30.150;2023-03-17T04:25:52;100061.74;;;4.06;68.30
61474;BME280;53694;49.784;30.150;2023-03-17T04:26:54;100052.11;;;4.44;67.06
61474;BME280;53694;49.784;30.150;2023-03-17T04:27:56;100051.14;;;4.71;65.45
61474;BME280;53694;49.784;30.150;2023-03-17T04:28:58;100057.46;;;4.81;64.55
61474;BME280;53694;49.784;30.150;2023-03-17T04:30:00;100057.09;;;4.73;64.17
61474;BME280;53694;49.784;30.150;2023-03-17T04:31:01;100058.91;;;4.56;64.40
61474;BME280;53694;49.784;30.150;2023-03-17T04:32:03;100057.81;;;4.34;64.73
61474;BME280;53694;49.784;30.150;2023-03-17T04:33:05;100064.34;;;4.11;65.65
61474;BME280;53694;49.784;30.150;2023-03-17T04:34:16;100058.56;;;3.90;66.14
61474;BME280;53694;49.784;30.150;2023-03-17T04:35:17;100059.32;;;3.68;66.68
61474;BME280;53694;49.784;30.150;2023-03-17T04:36:21;100063.09;;;3.44;67.53
61474;BME280;53694;49.784;30.150;2023-03-17T04:37:23;100064.78;;;3.26;68.15
61474;BME280;53694;49.784;30.150;2023-03-17T04:38:25;100064.37;;;3.06;69.00
61474;BME280;53694;49.784;30.150;2023-03-17T04:39:27;100066.87;;;2.88;69.74
61474;BME280;53694;49.784;30.150;2023-03-17T04:40:29;100067.44;;;2.71;70.45
61474;BME280;53694;49.784;30.150;2023-03-17T04:41:30;100069.62;;;2.56;71.05
61474;BME280;53694;49.784;30.150;2023-03-17T04:42:32;100071.20;;;2.43;71.67
61474;BME280;53694;49.784;30.150;2023-03-17T04:43:33;100070.98;;;2.39;72.12
61474;BME280;53694;49.784;30.150;2023-03-17T04:44:35;100075.64;;;2.53;72.48
61474;BME280;53694;49.784;30.150;2023-03-17T04:45:36;100081.11;;;2.80;72.08
61474;BME280;53694;49.784;30.150;2023-03-17T04:46:38;100069.62;;;3.16;71.08
61474;BME280;53694;49.784;30.150;2023-03-17T04:47:40;100076.12;;;3.56;69.97
61474;BME280;53694;49.784;30.150;2023-03-17T04:48:41;100077.78;;;3.93;68.68
61474;BME280;53694;49.784;30.150;2023-03-17T04:49:43;100076.66;;;4.31;67.16
61474;BME280;53694;49.784;30.150;2023-03-17T04:50:45;100076.52;;;4.58;66.32
61474;BME280;53694;49.784;30.150;2023-03-17T04:51:46;100070.52;;;4.70;65.83
61474;BME280;53694;49.784;30.150;2023-03-17T04:52:48;100078.35;;;4.71;65.34
61474;BME280;53694;49.784;30.150;2023-03-17T04:53:50;100081.66;;;4.60;65.35
61474;BME280;53694;49.784;30.150;2023-03-17T04:54:51;100079.92;;;4.41;65.73
61474;BME280;53694;49.784;30.150;2023-03-17T04:55:53;100082.02;;;4.22;66.32
61474;BME280;53694;49.784;30.150;2023-03-17T04:56:55;100077.85;;;4.02;66.55
61474;BME280;53694;49.784;30.150;2023-03-17T04:57:57;100078.13;;;3.78;66.90
61474;BME280;53694;49.784;30.150;2023-03-17T04:58:58;100086.99;;;3.56;67.69
61474;BME280;53694;49.784;30.150;2023-03-17T05:00:00;100078.77;;;3.34;68.24
61474;BME280;53694;49.784;30.150;2023-03-17T05:01:01;100087.61;;;3.12;69.39
61474;BME280;53694;49.784;30.150;2023-03-17T05:02:03;100090.10;;;2.94;70.12
61474;BME280;53694;49.784;30.150;2023-03-17T05:03:05;100090.36;;;2.79;70.83
61474;BME280;53694;49.784;30.150;2023-03-17T05:04:07;100089.23;;;2.66;71.40
61474;BME280;53694;49.784;30.150;2023-03-17T05:05:08;100091.23;;;2.61;71.76
61474;BME280;53694;49.784;30.150;2023-03-17T05:06:10;100093.48;;;2.72;71.91
61474;BME280;53694;49.784;30.150;2023-03-17T05:07:12;100091.12;;;2.98;71.48
61474;BME280;53694;49.784;30.150;2023-03-17T05:08:13;100088.02;;;3.33;70.52
61474;BME280;53694;49.784;30.150;2023-03-17T05:09:15;100091.31;;;3.71;69.32
61474;BME280;53694;49.784;30.150;2023-03-17T05:10:17;100088.72;;;4.02;67.37
61474;BME280;53694;49.784;30.150;2023-03-17T05:11:19;100086.92;;;4.34;66.63
61474;BME280;53694;49.784;30.150;2023-03-17T05:12:21;100087.10;;;4.60;65.70
61474;BME280;53694;49.784;30.150;2023-03-17T05:13:23;100086.46;;;4.63;64.27
61474;BME280;53694;49.784;30.150;2023-03-17T05:14:25;100099.20;;;4.54;64.47
61474;BME280;53694;49.784;30.150;2023-03-17T05:15:27;100093.96;;;4.35;64.66
61474;BME280;53694;49.784;30.150;2023-03-17T05:16:28;100098.07;;;4.10;65.63
61474;BME280;53694;49.784;30.150;2023-03-17T05:17:30;100092.40;;;3.84;66.51
61474;BME280;53694;49.784;30.150;2023-03-17T05:18:32;100099.66;;;3.61;67.34
61474;BME280;53694;49.784;30.150;2023-03-17T05:19:34;100101.70;;;3.41;68.15
61474;BME280;53694;49.784;30.150;2023-03-17T05:20:35;100096.97;;;3.19;68.74
61474;BME280;53694;49.784;30.150;2023-03-17T05:21:37;100101.66;;;3.00;69.41
61474;BME280;53694;49.784;30.150;2023-03-17T05:22:39;100101.42;;;2.83;69.95
61474;BME280;53694;49.784;30.150;2023-03-17T05:23:41;100102.51;;;2.68;70.73
61474;BME280;53694;49.784;30.150;2023-03-17T05:24:42;100100.53;;;2.55;71.36
61474;BME280;53694;49.784;30.150;2023-03-17T05:25:44;100100.41;;;2.46;71.98
61474;BME280;53694;49.784;30.150;2023-03-17T05:26:45;100105.02;;;2.45;72.54
61474;BME280;53694;49.784;30.150;2023-03-17T05:27:47;100099.36;;;2.61;72.43
61474;BME280;53694;49.784;30.150;2023-03-17T05:28:49;100104.05;;;2.88;71.83
61474;BME280;53694;49.784;30.150;2023-03-17T05:29:50;100102.61;;;3.23;70.76
61474;BME280;53694;49.784;30.150;2023-03-17T05:30:52;100100.48;;;3.61;69.81
61474;BME280;53694;49.784;30.150;2023-03-17T05:31:54;100100.39;;;4.03;68.70
61474;BME280;53694;49.784;30.150;2023-03-17T05:32:56;100096.88;;;4.38;67.08
61474;BME280;53694;49.784;30.150;2023-03-17T05:33:57;100103.61;;;4.63;65.76